Time;durP1;ratioP1;P1;durP2;ratioP2;P2;SDS_P1;SDS_P2;PMS_P1;PMS_P2;Temp;Humidity;BMP_temperature;BMP_pressure;BME280_temperature;BME280_humidity;BME280_pressure;Samples;Min_cycle;Max_cycle;Signal;HPM_P1;HPM_P2
2023/05/23 00:01:06;;;;;;;15.82;14.25;;;17.40;99.90;;;;;;5073109;28;20607;-70
2023/05/23 00:03:33;;;;;;;16.20;14.60;;;17.40;99.90;;;;;;5073061;28;20275;-69
2023/05/23 00:06:01;;;;;;;16.63;14.90;;;17.40;99.90;;;;;;5073030;28;20197;-69
2023/05/23 00:08:28;;;;;;;15.82;14.43;;;17.30;99.90;;;;;;5072957;28;20209;-69
2023/05/23 00:10:54;;;;;;;16.63;14.85;;;17.30;99.90;;;;;;5072850;28;20552;-70
2023/05/23 00:13:21;;;;;;;15.88;14.27;;;17.20;99.90;;;;;;5073026;28;20193;-69
2023/05/23 00:15:49;;;;;;;17.77;15.80;;;17.20;99.90;;;;;;5073107;28;20204;-69
2023/05/23 00:18:16;;;;;;;19.77;14.82;;;17.20;99.90;;;;;;5072683;28;20721;-70
2023/05/23 00:20:43;;;;;;;17.50;15.70;;;17.00;99.90;;;;;;5072824;28;20203;-69
2023/05/23 00:23:17;;;;;;;18.27;16.30;;;17.00;99.90;;;;;;5072691;28;20204;-70
2023/05/23 00:25:47;;;;;;;16.77;15.07;;;16.80;99.90;;;;;;5072912;28;20671;-69
2023/05/23 00:28:14;;;;;;;19.48;16.83;;;16.60;99.90;;;;;;5072784;28;20243;-69
2023/05/23 00:30:41;;;;;;;18.10;16.05;;;16.60;99.90;;;;;;5072828;28;20201;-70
2023/05/23 00:33:09;;;;;;;18.83;16.08;;;16.50;99.90;;;;;;5072623;28;20254;-70
2023/05/23 00:35:35;;;;;;;18.73;16.85;;;16.40;99.90;;;;;;5072868;28;20807;-69
2023/05/23 00:38:02;;;;;;;18.80;16.95;;;16.40;99.90;;;;;;5072943;28;20281;-70
2023/05/23 00:40:29;;;;;;;17.85;16.05;;;16.40;99.90;;;;;;5072655;28;20229;-70
2023/05/23 00:42:55;;;;;;;18.42;16.63;;;16.50;99.90;;;;;;5072698;28;20251;-69
2023/05/23 00:45:22;;;;;;;19.10;17.15;;;16.60;99.90;;;;;;5072670;28;20337;-70
2023/05/23 00:47:50;;;;;;;19.33;16.02;;;16.60;99.90;;;;;;5072462;28;20262;-69
2023/05/23 00:50:19;;;;;;;19.33;17.33;;;16.50;99.90;;;;;;5072393;28;20201;-69
2023/05/23 00:52:47;;;;;;;18.33;16.48;;;16.30;99.90;;;;;;5072229;28;20619;-70
2023/05/23 00:55:14;;;;;;;20.25;17.83;;;16.20;99.90;;;;;;5072601;28;20250;-70
2023/05/23 00:57:43;;;;;;;20.02;17.85;;;16.10;99.90;;;;;;5072497;28;20197;-70
2023/05/23 01:00:11;;;;;;;18.83;16.95;;;16.00;99.90;;;;;;5072214;28;20224;-70
2023/05/23 01:02:42;;;;;;;20.40;17.85;;;16.00;99.90;;;;;;5072207;28;20250;-69
2023/05/23 01:05:10;;;;;;;19.15;17.20;;;16.10;99.90;;;;;;5072743;28;20201;-70
2023/05/23 01:07:38;;;;;;;20.58;18.50;;;16.00;99.90;;;;;;5072327;28;20541;-70
2023/05/23 01:10:05;;;;;;;20.10;18.10;;;15.80;99.90;;;;;;5072319;28;20200;-70
2023/05/23 01:12:41;;;;;;;21.33;19.02;;;15.70;99.90;;;;;;5072305;28;20246;-69
2023/05/23 01:15:11;;;;;;;20.80;18.65;;;15.70;99.90;;;;;;5072240;28;20575;-70
2023/05/23 01:17:44;;;;;;;19.90;17.80;;;15.60;99.90;;;;;;5072401;28;20251;-70
2023/05/23 01:20:12;;;;;;;21.77;19.58;;;15.70;99.90;;;;;;5072351;28;20229;-70
2023/05/23 01:23:07;;;;;;;20.27;18.27;;;15.80;99.90;;;;;;5072197;28;20247;-70
2023/05/23 01:25:58;;;;;;;20.60;18.40;;;15.70;99.90;;;;;;5072222;28;20201;-69
2023/05/23 01:28:30;;;;;;;22.02;19.10;;;15.50;99.90;;;;;;5072369;28;20254;-70
2023/05/23 01:30:58;;;;;;;22.17;19.23;;;15.50;99.90;;;;;;5072303;28;20197;-70
2023/05/23 01:33:26;;;;;;;20.63;18.55;;;15.40;99.90;;;;;;5072013;28;20205;-69
2023/05/23 01:35:53;;;;;;;21.38;18.52;;;15.40;99.90;;;;;;5071992;28;20201;-69
2023/05/23 01:38:20;;;;;;;22.13;19.77;;;15.40;99.90;;;;;;5071937;28;20197;-70
2023/05/23 01:40:46;;;;;;;20.88;18.77;;;15.40;99.90;;;;;;5072185;28;20259;-70
2023/05/23 01:43:13;;;;;;;21.33;19.10;;;15.40;99.90;;;;;;5072131;28;20205;-70
2023/05/23 01:45:42;;;;;;;22.40;19.08;;;15.60;99.90;;;;;;5072083;28;20235;-70
2023/05/23 01:48:10;;;;;;;21.25;18.92;;;15.60;99.90;;;;;;5071933;28;20201;-70
2023/05/23 01:50:37;;;;;;;21.08;18.98;;;15.60;99.90;;;;;;5071818;28;20567;-71
2023/05/23 01:53:05;;;;;;;22.33;20.02;;;15.60;99.90;;;;;;5071798;28;20237;-71
2023/05/23 01:55:31;;;;;;;21.42;19.20;;;15.50;99.90;;;;;;5072071;28;20208;-71
2023/05/23 01:57:59;;;;;;;20.65;18.65;;;15.40;99.90;;;;;;5072381;28;20283;-70
2023/05/23 02:00:26;;;;;;;20.83;18.70;;;15.20;99.90;;;;;;5075513;28;20271;-71
2023/05/23 02:02:54;;;;;;;20.13;18.08;;;15.10;99.90;;;;;;5075410;28;20673;-70
2023/05/23 02:05:21;;;;;;;20.63;18.48;;;15.10;99.90;;;;;;5075244;28;20256;-70
2023/05/23 02:07:47;;;;;;;21.73;19.42;;;15.10;99.90;;;;;;5075437;28;20223;-71
2023/05/23 02:10:14;;;;;;;21.42;19.02;;;15.10;99.90;;;;;;5075323;28;20250;-70
2023/05/23 02:12:40;;;;;;;20.17;18.17;;;15.00;99.90;;;;;;5075235;28;20270;-70
2023/05/23 02:15:08;;;;;;;20.50;17.77;;;15.00;99.90;;;;;;5075255;28;20201;-71
2023/05/23 02:17:35;;;;;;;21.83;19.50;;;15.00;99.90;;;;;;5075497;28;20197;-71
2023/05/23 02:20:03;;;;;;;21.70;19.40;;;14.90;99.90;;;;;;5075132;28;20217;-70
2023/05/23 02:22:30;;;;;;;20.33;18.33;;;14.90;99.90;;;;;;5075249;28;20211;-70
2023/05/23 02:24:57;;;;;;;22.00;19.83;;;14.90;99.90;;;;;;5074980;28;20697;-71
2023/05/23 02:27:23;;;;;;;23.00;19.45;;;14.80;99.90;;;;;;5075215;28;20205;-71
2023/05/23 02:29:50;;;;;;;22.60;19.60;;;14.70;99.90;;;;;;5075039;28;20197;-71
2023/05/23 02:32:17;;;;;;;22.20;19.92;;;14.70;99.90;;;;;;5074822;28;20197;-70
2023/05/23 02:34:45;;;;;;;23.27;20.17;;;14.60;99.90;;;;;;5075127;28;20193;-71
2023/05/23 02:37:13;;;;;;;21.90;19.58;;;14.60;99.90;;;;;;5074844;28;20293;-70
2023/05/23 02:39:39;;;;;;;22.63;19.52;;;14.60;99.90;;;;;;5074754;28;20224;-71
2023/05/23 02:42:06;;;;;;;21.20;19.00;;;14.60;99.90;;;;;;5074739;28;20193;-71
2023/05/23 02:44:33;;;;;;;21.97;19.77;;;14.60;99.90;;;;;;5074593;28;20194;-70
2023/05/23 02:47:00;;;;;;;21.08;19.00;;;14.60;99.90;;;;;;5074562;28;20258;-70
2023/05/23 02:49:26;;;;;;;23.40;20.25;;;14.60;99.90;;;;;;5074665;28;20243;-70
2023/05/23 02:51:53;;;;;;;20.67;18.50;;;14.60;99.90;;;;;;5074593;28;20197;-70
2023/05/23 02:54:21;;;;;;;22.52;20.13;;;14.50;99.90;;;;;;5074444;28;20233;-71
2023/05/23 02:56:49;;;;;;;22.80;20.10;;;14.60;99.90;;;;;;5074480;28;20208;-70
2023/05/23 02:59:16;;;;;;;23.20;20.77;;;14.60;99.90;;;;;;5074253;28;20199;-70
2023/05/23 03:01:43;;;;;;;25.73;20.63;;;14.60;99.90;;;;;;5074425;28;20201;-70
2023/05/23 03:04:09;;;;;;;21.73;19.43;;;14.50;99.90;;;;;;5074300;28;20197;-70
2023/05/23 03:06:36;;;;;;;26.33;21.13;;;14.50;99.90;;;;;;5074269;28;20197;-70
2023/05/23 03:09:03;;;;;;;22.02;19.67;;;14.50;99.90;;;;;;5073606;28;20648;-70
2023/05/23 03:11:31;;;;;;;25.73;20.70;;;14.50;99.90;;;;;;5073358;28;20660;-70
2023/05/23 03:13:58;;;;;;;22.67;20.20;;;14.50;99.90;;;;;;5073964;28;20560;-70
2023/05/23 03:16:24;;;;;;;23.55;19.77;;;14.50;99.90;;;;;;5074169;28;20201;-70
2023/05/23 03:18:51;;;;;;;23.52;20.75;;;14.60;99.90;;;;;;5073724;28;20648;-70
2023/05/23 03:21:17;;;;;;;22.90;20.50;;;14.60;99.90;;;;;;5073914;28;20225;-70
2023/05/23 03:23:44;;;;;;;25.27;21.43;;;14.60;99.90;;;;;;5073805;28;20239;-70
2023/05/23 03:26:11;;;;;;;24.05;21.38;;;14.70;99.90;;;;;;5073385;28;20200;-70
2023/05/23 03:28:39;;;;;;;24.05;21.48;;;14.80;99.90;;;;;;5073622;28;20207;-70
2023/05/23 03:31:06;;;;;;;23.50;20.80;;;14.80;99.90;;;;;;5073763;28;20205;-70
2023/05/23 03:33:32;;;;;;;25.33;21.77;;;14.70;99.90;;;;;;5073893;28;20197;-70
2023/05/23 03:35:59;;;;;;;26.20;22.77;;;14.70;99.90;;;;;;5073634;28;20266;-70
2023/05/23 03:38:27;;;;;;;25.30;22.70;;;14.70;99.90;;;;;;5073695;28;20283;-70
2023/05/23 03:40:53;;;;;;;27.53;23.30;;;14.80;99.90;;;;;;5073487;28;20228;-70
2023/05/23 03:43:20;;;;;;;26.40;23.60;;;14.80;99.90;;;;;;5073280;28;20234;-70
2023/05/23 03:45:48;;;;;;;28.67;24.95;;;14.80;99.90;;;;;;5073533;28;20652;-70
2023/05/23 03:48:14;;;;;;;28.65;24.55;;;14.80;99.90;;;;;;5073520;28;20244;-70
2023/05/23 03:50:41;;;;;;;28.05;24.58;;;15.00;99.90;;;;;;5073312;28;20203;-70
2023/05/23 03:53:08;;;;;;;27.42;24.33;;;15.10;99.90;;;;;;5073030;28;20750;-70
2023/05/23 03:55:34;;;;;;;29.27;24.48;;;15.10;99.90;;;;;;5073118;28;20242;-70
2023/05/23 03:58:01;;;;;;;29.83;24.33;;;15.20;99.90;;;;;;5073103;28;20201;-70
2023/05/23 04:00:28;;;;;;;29.58;25.63;;;15.20;99.90;;;;;;5073077;28;20758;-70
2023/05/23 04:02:56;;;;;;;27.58;24.63;;;15.20;99.90;;;;;;5073129;28;20193;-70
2023/05/23 04:05:22;;;;;;;28.60;25.27;;;15.30;99.90;;;;;;5072963;28;20603;-71
2023/05/23 04:07:50;;;;;;;30.02;25.85;;;15.40;99.90;;;;;;5072973;28;20197;-70
2023/05/23 04:10:17;;;;;;;30.75;25.75;;;15.40;99.90;;;;;;5073059;28;20207;-70
2023/05/23 04:12:43;;;;;;;28.13;25.05;;;15.50;99.90;;;;;;5073114;28;20197;-70
2023/05/23 04:15:10;;;;;;;30.25;25.85;;;15.50;99.90;;;;;;5073153;28;20546;-70
2023/05/23 04:17:37;;;;;;;29.42;25.50;;;15.60;99.90;;;;;;5072904;28;20657;-70
2023/05/23 04:20:08;;;;;;;27.60;24.70;;;15.70;99.90;;;;;;5072927;28;20233;-70
2023/05/23 04:22:35;;;;;;;28.13;25.13;;;15.70;99.90;;;;;;5072462;28;20274;-70
2023/05/23 04:25:01;;;;;;;30.17;25.80;;;15.70;99.90;;;;;;5072922;28;20201;-70
2023/05/23 04:27:28;;;;;;;27.55;24.52;;;15.70;99.90;;;;;;5072974;28;20228;-70
2023/05/23 04:29:57;;;;;;;28.30;24.13;;;15.80;99.90;;;;;;5072943;28;20207;-70
2023/05/23 04:32:24;;;;;;;27.60;23.70;;;15.80;99.90;;;;;;5072944;28;20197;-70
2023/05/23 04:34:50;;;;;;;26.95;24.15;;;15.80;99.90;;;;;;5072687;28;20635;-70
2023/05/23 04:37:20;;;;;;;25.58;22.58;;;15.70;99.90;;;;;;5072689;28;20197;-70
2023/05/23 04:39:47;;;;;;;27.00;24.17;;;15.60;99.90;;;;;;5072748;28;20209;-71
2023/05/23 04:42:14;;;;;;;27.15;23.45;;;15.70;99.90;;;;;;5072540;28;20652;-70
2023/05/23 04:44:41;;;;;;;27.00;23.63;;;15.80;99.90;;;;;;5072525;28;20598;-70
2023/05/23 04:47:08;;;;;;;27.38;23.08;;;15.80;99.90;;;;;;5072509;28;20242;-70
2023/05/23 04:49:36;;;;;;;28.48;23.52;;;15.90;99.90;;;;;;5072525;28;20197;-70
2023/05/23 04:52:03;;;;;;;28.42;23.75;;;15.80;99.90;;;;;;5072267;28;20698;-70
2023/05/23 04:54:31;;;;;;;27.13;22.83;;;15.80;99.90;;;;;;5072342;28;20864;-70
2023/05/23 04:56:58;;;;;;;26.15;23.45;;;15.90;99.90;;;;;;5072609;28;20283;-70
2023/05/23 04:59:25;;;;;;;25.05;22.45;;;15.90;99.90;;;;;;5072382;28;20613;-70
2023/05/23 05:01:52;;;;;;;26.67;23.00;;;16.00;99.90;;;;;;5072044;28;20753;-70
2023/05/23 05:04:18;;;;;;;24.25;21.75;;;16.10;99.90;;;;;;5072332;28;20246;-70
2023/05/23 05:06:46;;;;;;;24.00;21.08;;;16.10;99.90;;;;;;5072116;28;20201;-70
2023/05/23 05:09:13;;;;;;;24.02;20.63;;;16.10;99.90;;;;;;5072256;28;20660;-70
2023/05/23 05:11:41;;;;;;;22.48;20.08;;;16.20;99.90;;;;;;5072380;28;20348;-70
2023/05/23 05:14:08;;;;;;;24.17;21.30;;;16.20;99.90;;;;;;5072268;28;20251;-70
2023/05/23 05:16:35;;;;;;;23.08;20.42;;;16.30;99.90;;;;;;5072221;28;20631;-70
2023/05/23 05:19:01;;;;;;;21.90;19.58;;;16.30;99.90;;;;;;5072046;28;20280;-70
2023/05/23 05:21:28;;;;;;;22.35;19.98;;;16.40;99.90;;;;;;5072298;28;20227;-71
2023/05/23 05:23:54;;;;;;;23.45;20.77;;;16.50;99.90;;;;;;5072325;28;20246;-70
2023/05/23 05:26:22;;;;;;;23.35;19.75;;;16.40;99.90;;;;;;5072197;28;20193;-70
2023/05/23 05:28:50;;;;;;;23.08;20.55;;;16.40;99.90;;;;;;5072016;28;20201;-70
2023/05/23 05:31:17;;;;;;;22.98;20.60;;;16.50;99.90;;;;;;5071992;28;20223;-70
2023/05/23 05:33:44;;;;;;;23.67;20.38;;;16.60;99.90;;;;;;5073684;28;20199;-70
2023/05/23 05:36:11;;;;;;;23.35;20.95;;;16.70;99.90;;;;;;5075856;28;20205;-70
2023/05/23 05:38:38;;;;;;;22.77;20.40;;;16.60;99.90;;;;;;5075938;28;20193;-70
2023/05/23 05:41:05;;;;;;;21.92;19.60;;;16.70;99.90;;;;;;5075730;28;20225;-70
2023/05/23 05:43:31;;;;;;;22.52;20.33;;;16.70;99.90;;;;;;5075743;28;20250;-70
2023/05/23 05:45:59;;;;;;;22.63;20.17;;;16.60;99.90;;;;;;5075672;28;20250;-70
2023/05/23 05:48:26;;;;;;;22.58;20.17;;;16.60;99.90;;;;;;5075907;28;20200;-70
2023/05/23 05:50:52;;;;;;;21.92;19.40;;;16.60;99.90;;;;;;5075806;28;20197;-71
2023/05/23 05:53:19;;;;;;;20.73;18.58;;;16.60;99.90;;;;;;5075683;28;20229;-71
2023/05/23 05:55:46;;;;;;;22.00;19.73;;;16.90;99.90;;;;;;5075876;28;20193;-71
2023/05/23 05:58:12;;;;;;;23.40;18.92;;;17.00;99.90;;;;;;5075614;28;20254;-71
2023/05/23 06:00:42;;;;;;;22.63;20.23;;;17.00;99.90;;;;;;5075383;28;20581;-71
2023/05/23 06:03:10;;;;;;;21.15;18.88;;;17.00;99.90;;;;;;5075675;28;20205;-71
2023/05/23 06:05:38;;;;;;;20.85;18.75;;;17.20;99.90;;;;;;5075581;28;20201;-70
2023/05/23 06:08:05;;;;;;;22.17;19.20;;;17.30;99.90;;;;;;5075472;28;20200;-70
2023/05/23 06:10:31;;;;;;;20.77;18.55;;;17.30;99.90;;;;;;5075239;28;20274;-70
2023/05/23 06:12:58;;;;;;;19.38;17.35;;;17.30;99.90;;;;;;5075200;28;20197;-71
2023/05/23 06:15:25;;;;;;;20.88;18.58;;;17.40;99.90;;;;;;5075173;28;20255;-71
2023/05/23 06:17:52;;;;;;;20.38;18.05;;;17.50;99.90;;;;;;5075327;28;20201;-70
2023/05/23 06:20:19;;;;;;;21.10;18.38;;;17.60;99.90;;;;;;5073676;28;20271;-71
2023/05/23 06:22:46;;;;;;;20.55;18.40;;;17.60;99.90;;;;;;5082717;28;20197;-72
2023/05/23 06:25:13;;;;;;;19.52;17.42;;;17.50;99.90;;;;;;5094956;28;20245;-73
2023/05/23 06:27:40;;;;;;;18.77;16.85;;;17.60;99.90;;;;;;5095072;28;20913;-73
2023/05/23 06:30:07;;;;;;;19.40;17.40;;;17.60;99.90;;;;;;5095472;28;20644;-71
2023/05/23 06:32:34;;;;;;;19.60;17.52;;;17.80;99.90;;;;;;5095142;28;20196;-72
2023/05/23 06:35:01;;;;;;;20.00;17.85;;;17.80;99.90;;;;;;5095237;28;20666;-72
2023/05/23 06:37:28;;;;;;;19.55;17.45;;;18.00;99.90;;;;;;5094971;28;20200;-71
2023/05/23 06:39:55;;;;;;;19.67;17.58;;;17.90;99.90;;;;;;5095117;28;20196;-72
2023/05/23 06:42:22;;;;;;;19.45;17.55;;;17.80;99.90;;;;;;5094865;28;20227;-70
2023/05/23 06:44:48;;;;;;;20.77;18.42;;;17.80;99.90;;;;;;5065858;28;20220;-73
2023/05/23 06:47:15;;;;;;;22.90;18.88;;;18.10;99.90;;;;;;5054442;28;20270;-73
2023/05/23 06:49:42;;;;;;;22.75;20.48;;;18.10;99.90;;;;;;5067866;28;20201;-71
2023/05/23 06:52:08;;;;;;;21.73;19.38;;;18.40;99.90;;;;;;5074014;28;20601;-73
2023/05/23 06:54:36;;;;;;;22.55;20.13;;;18.20;99.90;;;;;;5083385;28;20587;-73
2023/05/23 06:57:03;;;;;;;23.60;21.10;;;18.10;99.90;;;;;;5094052;28;20254;-72
2023/05/23 06:59:30;;;;;;;22.13;19.88;;;18.00;99.90;;;;;;5082770;28;20219;-72
2023/05/23 07:01:56;;;;;;;22.55;20.30;;;18.00;99.90;;;;;;5073979;28;20224;-72
2023/05/23 07:04:23;;;;;;;23.40;19.80;;;18.00;99.90;;;;;;5073701;28;20197;-73
2023/05/23 07:06:51;;;;;;;21.25;19.13;;;18.20;99.90;;;;;;5073976;28;20420;-71
2023/05/23 07:09:18;;;;;;;22.98;20.10;;;18.10;99.90;;;;;;5073675;28;20196;-71
2023/05/23 07:11:45;;;;;;;27.20;18.02;;;18.00;99.90;;;;;;5074047;28;20607;-70
2023/05/23 07:14:12;;;;;;;21.30;19.17;;;17.90;99.90;;;;;;5073457;28;20197;-71
2023/05/23 07:16:39;;;;;;;21.35;19.15;;;18.10;99.90;;;;;;5073869;28;20197;-71
2023/05/23 07:19:05;;;;;;;20.35;18.17;;;17.90;99.90;;;;;;5073080;28;20317;-71
2023/05/23 07:21:32;;;;;;;20.98;18.90;;;18.00;99.90;;;;;;5073677;28;20266;-71
2023/05/23 07:23:58;;;;;;;20.60;18.40;;;17.90;99.90;;;;;;5073216;28;20242;-72
2023/05/23 07:26:26;;;;;;;21.85;19.38;;;17.60;99.90;;;;;;5073712;28;20247;-72
2023/05/23 07:28:54;;;;;;;21.17;18.92;;;17.50;99.90;;;;;;5073474;28;20208;-72
2023/05/23 07:31:21;;;;;;;21.23;18.88;;;17.50;99.90;;;;;;5073562;28;20649;-72
2023/05/23 07:33:47;;;;;;;20.42;18.38;;;17.60;99.90;;;;;;5073816;28;20247;-72
2023/05/23 07:36:15;;;;;;;22.33;20.08;;;17.40;99.90;;;;;;5073678;28;20561;-72
2023/05/23 07:38:41;;;;;;;22.02;19.77;;;17.40;99.90;;;;;;5073576;28;20637;-72
2023/05/23 07:41:08;;;;;;;19.85;17.85;;;17.40;99.90;;;;;;5073633;28;20270;-72
2023/05/23 07:43:35;;;;;;;20.77;18.67;;;17.50;99.90;;;;;;5073617;28;20197;-72
2023/05/23 07:46:02;;;;;;;19.88;17.80;;;17.60;99.90;;;;;;5073503;28;20205;-72
2023/05/23 07:48:30;;;;;;;23.65;17.88;;;17.90;99.90;;;;;;5073545;28;20269;-72
2023/05/23 07:50:57;;;;;;;18.33;16.63;;;18.30;99.90;;;;;;5072868;28;20205;-72
2023/05/23 07:53:23;;;;;;;16.60;15.00;;;18.60;99.90;;;;;;5072876;28;20285;-72
2023/05/23 07:55:50;;;;;;;17.30;15.65;;;18.70;99.90;;;;;;5072914;28;20201;-73
2023/05/23 07:58:17;;;;;;;18.15;15.68;;;18.60;99.90;;;;;;5072888;28;20193;-72
2023/05/23 08:00:44;;;;;;;18.38;15.38;;;18.20;99.90;;;;;;5072974;28;20319;-72
2023/05/23 08:03:12;;;;;;;16.70;15.10;;;18.20;99.90;;;;;;5073194;28;20193;-73
2023/05/23 08:05:39;;;;;;;17.65;15.88;;;18.20;99.90;;;;;;5073182;28;20197;-72
2023/05/23 08:08:06;;;;;;;18.85;16.88;;;18.20;99.90;;;;;;5073373;28;20197;-73
2023/05/23 08:10:32;;;;;;;18.30;16.23;;;18.30;99.90;;;;;;5072987;28;20672;-72
2023/05/23 08:13:03;;;;;;;18.63;16.65;;;18.30;99.90;;;;;;5073219;28;20201;-72
2023/05/23 08:15:30;;;;;;;18.48;15.45;;;18.80;99.90;;;;;;5073079;28;20196;-72
2023/05/23 08:17:57;;;;;;;17.80;16.00;;;19.20;99.90;;;;;;5073045;28;20201;-72
2023/05/23 08:20:29;;;;;;;18.55;14.85;;;19.40;99.90;;;;;;5072869;28;20197;-72
2023/05/23 08:22:57;;;;;;;17.30;14.82;;;19.60;99.90;;;;;;5073098;28;20221;-72
2023/05/23 08:25:24;;;;;;;16.80;14.50;;;19.40;99.90;;;;;;5073085;28;20197;-72
2023/05/23 08:27:51;;;;;;;15.88;14.25;;;19.20;99.90;;;;;;5072782;28;20765;-72
2023/05/23 08:30:17;;;;;;;16.88;15.07;;;18.90;99.90;;;;;;5072630;28;20646;-72
2023/05/23 08:32:44;;;;;;;15.00;13.50;;;18.60;99.90;;;;;;5072667;28;20201;-72
2023/05/23 08:35:11;;;;;;;15.73;13.82;;;18.70;99.90;;;;;;5072983;28;20203;-72
2023/05/23 08:37:38;;;;;;;14.77;13.27;;;18.70;99.90;;;;;;5072836;28;20250;-72
2023/05/23 08:40:13;;;;;;;15.07;13.40;;;18.60;99.90;;;;;;5072813;28;20247;-72
2023/05/23 08:42:40;;;;;;;14.55;12.38;;;18.70;99.90;;;;;;5072604;28;20251;-72
2023/05/23 08:45:08;;;;;;;13.75;12.40;;;18.80;99.90;;;;;;5072593;28;20200;-72
2023/05/23 08:47:37;;;;;;;12.43;11.23;;;18.40;99.90;;;;;;5072656;28;20641;-72
2023/05/23 08:50:06;;;;;;;12.43;11.23;;;18.80;99.90;;;;;;5072703;28;20280;-72
2023/05/23 08:52:33;;;;;;;12.18;11.00;;;19.20;99.90;;;;;;5072403;28;20208;-73
2023/05/23 08:55:02;;;;;;;12.32;11.23;;;18.90;99.90;;;;;;5072693;28;20197;-72
2023/05/23 08:57:29;;;;;;;13.77;12.43;;;18.70;99.90;;;;;;5072543;28;20288;-72
2023/05/23 08:59:57;;;;;;;15.23;12.18;;;18.30;99.90;;;;;;5072494;28;20670;-72
2023/05/23 09:02:24;;;;;;;15.63;13.18;;;18.30;99.90;;;;;;5072644;28;20224;-72
2023/05/23 09:04:52;;;;;;;16.60;12.88;;;18.10;99.90;;;;;;5072633;28;20201;-72
2023/05/23 09:07:19;;;;;;;15.63;13.73;;;18.30;99.90;;;;;;5073613;28;20255;-72
2023/05/23 09:09:46;;;;;;;16.17;12.75;;;18.20;99.90;;;;;;5076486;28;20663;-72
2023/05/23 09:12:14;;;;;;;13.88;12.60;;;18.20;99.90;;;;;;5076453;28;20250;-72
2023/05/23 09:14:44;;;;;;;14.18;12.68;;;18.10;99.90;;;;;;5076695;28;20201;-72
2023/05/23 09:17:15;;;;;;;14.50;12.50;;;18.10;99.90;;;;;;5076634;28;20513;-72
2023/05/23 09:19:42;;;;;;;13.93;12.52;;;18.10;99.90;;;;;;5076531;28;20211;-72
2023/05/23 09:22:08;;;;;;;14.50;12.63;;;18.00;99.90;;;;;;5076457;28;20224;-72
2023/05/23 09:24:35;;;;;;;13.15;11.85;;;17.70;99.90;;;;;;5076245;28;20205;-72
2023/05/23 09:27:02;;;;;;;13.60;12.18;;;17.80;99.90;;;;;;5076301;28;20640;-72
2023/05/23 09:29:30;;;;;;;15.93;12.88;;;17.90;99.90;;;;;;5076513;28;20193;-71
2023/05/23 09:32:00;;;;;;;13.65;12.13;;;17.70;99.90;;;;;;5076336;28;20726;-71
2023/05/23 09:34:28;;;;;;;13.30;12.00;;;18.00;99.90;;;;;;5076397;28;20201;-72
2023/05/23 09:36:55;;;;;;;15.77;10.80;;;17.80;99.90;;;;;;5076161;28;20197;-71
2023/05/23 09:39:22;;;;;;;13.30;11.15;;;17.70;99.90;;;;;;5076011;28;20200;-71
2023/05/23 09:41:49;;;;;;;10.82;9.90;;;18.00;99.90;;;;;;5075866;28;20589;-71
2023/05/23 09:44:23;;;;;;;10.93;9.80;;;18.10;99.90;;;;;;5076190;28;20197;-72
2023/05/23 09:46:52;;;;;;;10.70;9.60;;;18.30;99.90;;;;;;5076172;28;20205;-72
2023/05/23 09:49:21;;;;;;;10.50;9.38;;;18.20;99.90;;;;;;5076068;28;20291;-72
2023/05/23 09:51:57;;;;;;;13.05;9.63;;;18.20;99.90;;;;;;5075807;28;20200;-72
2023/05/23 09:54:24;;;;;;;11.60;8.93;;;18.20;99.90;;;;;;5075862;28;20622;-72
2023/05/23 09:56:54;;;;;;;13.55;9.50;;;18.10;99.90;;;;;;5076102;28;20798;-72
2023/05/23 09:59:23;;;;;;;9.82;8.90;;;18.10;99.90;;;;;;5075920;28;20197;-72
2023/05/23 10:01:54;;;;;;;9.93;9.00;;;18.10;99.90;;;;;;5075758;28;20220;-72
2023/05/23 10:04:22;;;;;;;9.48;8.30;;;18.60;99.90;;;;;;5075429;28;20243;-72
2023/05/23 10:06:52;;;;;;;9.10;8.30;;;18.60;99.90;;;;;;5075725;28;20200;-72
2023/05/23 10:09:22;;;;;;;9.35;7.90;;;18.40;99.90;;;;;;5075584;28;20211;-72
2023/05/23 10:12:26;;;;;;;8.63;7.60;;;18.10;99.90;;;;;;5076028;28;20258;-72
2023/05/23 10:14:57;;;;;;;8.90;8.05;;;18.40;99.90;;;;;;5075306;28;20717;-72
2023/05/23 10:17:29;;;;;;;9.27;7.93;;;18.20;99.90;;;;;;5075616;28;20255;-72
2023/05/23 10:20:01;;;;;;;9.65;8.60;;;18.40;99.90;;;;;;5074686;28;20301;-73
2023/05/23 10:22:28;;;;;;;8.23;7.53;;;18.30;99.90;;;;;;5075230;28;20298;-72
2023/05/23 10:24:55;;;;;;;9.88;8.25;;;18.40;99.90;;;;;;5075266;28;20200;-72
2023/05/23 10:27:22;;;;;;;9.57;8.68;;;18.70;99.90;;;;;;5074880;28;20601;-72
2023/05/23 10:29:50;;;;;;;9.27;8.25;;;18.20;99.90;;;;;;5075063;28;20197;-73
2023/05/23 10:32:17;;;;;;;9.15;7.93;;;19.10;99.90;;;;;;5075328;28;20272;-72
2023/05/23 10:34:57;;;;;;;8.82;7.72;;;18.80;99.90;;;;;;5075016;28;20205;-71
2023/05/23 10:37:29;;;;;;;8.25;7.53;;;19.20;99.90;;;;;;5075048;28;20208;-71
2023/05/23 10:40:02;;;;;;;9.88;7.85;;;19.00;99.90;;;;;;5074614;28;20201;-71
2023/05/23 10:42:41;;;;;;;10.07;7.00;;;19.30;99.90;;;;;;5074745;28;20323;-71
2023/05/23 10:45:15;;;;;;;7.35;6.65;;;19.70;99.90;;;;;;5074694;28;20192;-70
2023/05/23 10:47:42;;;;;;;6.20;5.60;;;19.60;99.90;;;;;;5068328;28;20774;-70
2023/05/23 10:50:12;;;;;;;6.15;5.63;;;19.20;99.90;;;;;;5073659;28;20247;-71
2023/05/23 10:52:39;;;;;;;5.82;5.00;;;19.30;99.90;;;;;;5073876;28;20332;-71
2023/05/23 10:55:13;;;;;;;5.82;4.82;;;19.40;99.90;;;;;;5074167;28;20247;-73
2023/05/23 10:57:40;;;;;;;6.25;4.53;;;19.60;99.90;;;;;;5074332;28;20193;-71
2023/05/23 11:00:13;;;;;;;5.13;4.63;;;20.00;99.90;;;;;;5074058;28;20280;-72
2023/05/23 11:02:52;;;;;;;5.43;4.28;;;20.00;99.90;;;;;;5062016;28;20228;-72
2023/05/23 11:05:22;;;;;;;4.57;4.20;;;20.60;99.90;;;;;;5054197;28;20251;-72
2023/05/23 11:08:07;;;;;;;5.20;4.70;;;20.30;99.90;;;;;;5053970;28;20202;-71
2023/05/23 11:10:52;;;;;;;5.90;4.07;;;20.60;99.90;;;;;;5054019;28;20209;-72
2023/05/23 11:13:20;;;;;;;4.10;3.70;;;21.30;99.90;;;;;;5053970;28;20247;-74
2023/05/23 11:15:47;;;;;;;4.43;4.03;;;22.00;99.90;;;;;;5054251;28;20252;-72
2023/05/23 11:18:21;;;;;;;4.50;4.10;;;22.00;99.90;;;;;;5054175;28;20267;-73
2023/05/23 11:20:51;;;;;;;8.63;4.47;;;21.20;99.90;;;;;;5054135;28;20197;-72
2023/05/23 11:23:18;;;;;;;4.78;4.22;;;20.50;99.90;;;;;;5053966;28;20218;-73
2023/05/23 11:25:47;;;;;;;4.72;4.32;;;20.10;99.90;;;;;;5053808;28;20801;-72
2023/05/23 11:28:14;;;;;;;4.93;4.28;;;19.80;99.90;;;;;;5053963;28;20193;-73
2023/05/23 11:30:41;;;;;;;4.30;3.90;;;20.00;99.90;;;;;;5052914;28;20198;-72
2023/05/23 11:33:12;;;;;;;4.90;4.43;;;19.60;99.90;;;;;;5053717;28;20722;-72
2023/05/23 11:35:39;;;;;;;4.32;3.92;;;20.00;99.90;;;;;;5093524;28;20272;-73
2023/05/23 11:38:08;;;;;;;4.78;4.32;;;20.00;99.90;;;;;;5090380;28;20537;-74
2023/05/23 11:40:36;;;;;;;8.15;4.10;;;19.90;99.90;;;;;;5063907;28;20254;-72
2023/05/23 11:43:05;;;;;;;5.43;3.80;;;20.00;99.90;;;;;;5073630;28;20691;-78
2023/05/23 11:45:32;;;;;;;4.45;3.80;;;21.50;99.90;;;;;;5073547;28;20223;-74
2023/05/23 11:47:59;;;;;;;5.53;3.50;;;22.00;99.90;;;;;;5073422;28;20197;-74
2023/05/23 11:50:26;;;;;;;4.53;3.42;;;22.30;99.90;;;;;;5073296;28;20201;-73
2023/05/23 11:52:54;;;;;;;3.88;3.55;;;22.60;99.90;;;;;;5073209;28;20233;-73
2023/05/23 11:55:23;;;;;;;4.07;3.70;;;21.80;99.90;;;;;;5073385;28;20201;-73
2023/05/23 11:57:50;;;;;;;4.47;3.95;;;20.70;99.90;;;;;;5073283;28;20193;-73
2023/05/23 12:00:18;;;;;;;5.20;4.55;;;20.00;99.90;;;;;;5073237;28;20196;-74
2023/05/23 12:02:47;;;;;;;5.70;4.00;;;19.90;99.90;;;;;;5073067;28;20239;-72
2023/05/23 12:05:14;;;;;;;6.05;3.90;;;19.90;99.90;;;;;;5072920;28;20211;-73
2023/05/23 12:07:41;;;;;;;4.30;3.90;;;19.60;99.90;;;;;;5073351;28;20197;-79
2023/05/23 12:10:09;;;;;;;4.00;3.70;;;19.80;99.90;;;;;;5073189;28;20258;-72
2023/05/23 12:12:37;;;;;;;4.13;3.78;;;19.70;99.90;;;;;;5072999;28;20200;-72
2023/05/23 12:15:05;;;;;;;4.53;4.13;;;19.60;99.90;;;;;;5072979;28;20254;-72
2023/05/23 12:17:32;;;;;;;4.70;4.30;;;19.90;99.90;;;;;;5072994;28;20197;-72
2023/05/23 12:19:59;;;;;;;5.90;3.90;;;19.60;99.90;;;;;;5072919;28;20278;-73
2023/05/23 12:22:28;;;;;;;4.28;3.88;;;19.40;99.90;;;;;;5072941;28;20345;-73
2023/05/23 12:24:56;;;;;;;4.68;4.28;;;19.50;99.90;;;;;;5073023;28;20205;-73
2023/05/23 12:27:29;;;;;;;4.57;4.18;;;19.40;99.90;;;;;;5072903;28;20197;-73
2023/05/23 12:30:08;;;;;;;4.50;4.10;;;19.40;99.90;;;;;;5072691;28;20553;-71
2023/05/23 12:32:35;;;;;;;4.75;4.10;;;19.60;99.90;;;;;;5072643;28;20196;-72
2023/05/23 12:35:03;;;;;;;3.80;3.50;;;19.50;99.90;;;;;;5073010;28;20232;-72